sensor_id;sensor_type;location;lat;lon;timestamp;pressure;altitude;pressure_sealevel;temperature;humidity
34983;BME280;21187;50.976;13.720;2022-12-11T00:02:51;97519.06;;;1.13;61.38
34983;BME280;21187;50.976;13.720;2022-12-11T00:07:53;97517.97;;;1.14;61.23
34983;BME280;21187;50.976;13.720;2022-12-11T00:12:55;97522.84;;;1.12;61.08
34983;BME280;21187;50.976;13.720;2022-12-11T00:17:57;97526.59;;;1.11;61.31
34983;BME280;21187;50.976;13.720;2022-12-11T00:22:59;97519.06;;;1.13;61.39
34983;BME280;21187;50.976;13.720;2022-12-11T00:28:00;97523.19;;;1.20;61.20
34983;BME280;21187;50.976;13.720;2022-12-11T00:33:02;97528.50;;;1.20;61.28
34983;BME280;21187;50.976;13.720;2022-12-11T00:38:04;97521.72;;;1.13;61.15
34983;BME280;21187;50.976;13.720;2022-12-11T00:43:06;97526.47;;;1.16;61.40
34983;BME280;21187;50.976;13.720;2022-12-11T00:48:09;97520.03;;;1.18;61.09
34983;BME280;21187;50.976;13.720;2022-12-11T00:53:11;97521.25;;;1.11;61.01
34983;BME280;21187;50.976;13.720;2022-12-11T00:58:14;97514.84;;;1.12;61.16
34983;BME280;21187;50.976;13.720;2022-12-11T01:03:16;97517.66;;;1.16;60.96
34983;BME280;21187;50.976;13.720;2022-12-11T01:08:18;97519.06;;;1.13;60.70
34983;BME280;21187;50.976;13.720;2022-12-11T01:13:20;97523.09;;;1.11;60.63
34983;BME280;21187;50.976;13.720;2022-12-11T01:18:22;97531.72;;;1.08;61.06
34983;BME280;21187;50.976;13.720;2022-12-11T01:23:24;97530.75;;;1.04;60.83
34983;BME280;21187;50.976;13.720;2022-12-11T01:28:26;97518.81;;;1.01;60.94
34983;BME280;21187;50.976;13.720;2022-12-11T01:33:28;97520.72;;;1.01;60.77
34983;BME280;21187;50.976;13.720;2022-12-11T01:38:30;97526.63;;;0.97;61.00
34983;BME280;21187;50.976;13.720;2022-12-11T01:43:32;97533.34;;;0.95;60.85
34983;BME280;21187;50.976;13.720;2022-12-11T01:48:33;97536.63;;;0.92;60.91
34983;BME280;21187;50.976;13.720;2022-12-11T01:53:47;97534.56;;;0.89;60.83
34983;BME280;21187;50.976;13.720;2022-12-11T01:58:53;97530.63;;;0.86;60.84
34983;BME280;21187;50.976;13.720;2022-12-11T02:03:57;97525.09;;;0.82;60.82
34983;BME280;21187;50.976;13.720;2022-12-11T02:09:00;97525.72;;;0.79;61.02
34983;BME280;21187;50.976;13.720;2022-12-11T02:14:23;97523.34;;;0.78;61.01
34983;BME280;21187;50.976;13.720;2022-12-11T02:20:00;97527.41;;;0.75;60.76
34983;BME280;21187;50.976;13.720;2022-12-11T02:30:49;97521.22;;;0.66;60.96
34983;BME280;21187;50.976;13.720;2022-12-11T02:35:53;97512.72;;;0.64;60.93
34983;BME280;21187;50.976;13.720;2022-12-11T02:40:56;97513.34;;;0.61;60.81
34983;BME280;21187;50.976;13.720;2022-12-11T02:46:00;97519.25;;;0.58;60.77
34983;BME280;21187;50.976;13.720;2022-12-11T02:51:06;97512.94;;;0.54;60.79
34983;BME280;21187;50.976;13.720;2022-12-11T02:56:17;97519.25;;;0.58;60.99
34983;BME280;21187;50.976;13.720;2022-12-11T03:01:21;97516.09;;;0.56;60.91
34983;BME280;21187;50.976;13.720;2022-12-11T03:06:29;97518.28;;;0.54;61.09
34983;BME280;21187;50.976;13.720;2022-12-11T03:11:32;97509.63;;;0.48;61.04
34983;BME280;21187;50.976;13.720;2022-12-11T03:16:41;97510.88;;;0.51;61.09
34983;BME280;21187;50.976;13.720;2022-12-11T03:21:52;97518.38;;;0.48;60.95
34983;BME280;21187;50.976;13.720;2022-12-11T03:27:02;97521.66;;;0.45;60.63
34983;BME280;21187;50.976;13.720;2022-12-11T03:32:14;97519.09;;;0.40;61.18
34983;BME280;21187;50.976;13.720;2022-12-11T03:37:21;97513.09;;;0.35;61.21
34983;BME280;21187;50.976;13.720;2022-12-11T03:42:25;97516.53;;;0.35;61.04
34983;BME280;21187;50.976;13.720;2022-12-11T03:47:28;97514.94;;;0.34;60.79
34983;BME280;21187;50.976;13.720;2022-12-11T03:52:31;97524.81;;;0.33;60.99
34983;BME280;21187;50.976;13.720;2022-12-11T03:57:36;97521.66;;;0.31;61.02
34983;BME280;21187;50.976;13.720;2022-12-11T04:02:39;97525.13;;;0.32;60.80
34983;BME280;21187;50.976;13.720;2022-12-11T04:07:41;97521.66;;;0.31;60.85
34983;BME280;21187;50.976;13.720;2022-12-11T04:12:43;97523.03;;;0.29;60.87
34983;BME280;21187;50.976;13.720;2022-12-11T04:17:44;97524.72;;;0.25;60.99
34983;BME280;21187;50.976;13.720;2022-12-11T04:23:06;97525.81;;;0.24;60.57
34983;BME280;21187;50.976;13.720;2022-12-11T04:28:30;97534.41;;;0.21;60.87
34983;BME280;21187;50.976;13.720;2022-12-11T04:33:32;97532.72;;;0.25;60.93
34983;BME280;21187;50.976;13.720;2022-12-11T04:38:34;97523.66;;;0.26;60.86
34983;BME280;21187;50.976;13.720;2022-12-11T04:43:36;97520.09;;;0.30;61.09
34983;BME280;21187;50.976;13.720;2022-12-11T04:48:38;97521.88;;;0.35;60.98
34983;BME280;21187;50.976;13.720;2022-12-11T04:53:40;97519.19;;;0.35;60.93
34983;BME280;21187;50.976;13.720;2022-12-11T04:58:43;97519.19;;;0.35;60.58
34983;BME280;21187;50.976;13.720;2022-12-11T05:03:46;97504.28;;;0.34;60.87
34983;BME280;21187;50.976;13.720;2022-12-11T05:08:48;97502.25;;;0.31;61.01
34983;BME280;21187;50.976;13.720;2022-12-11T05:13:50;97507.16;;;0.24;60.67
34983;BME280;21187;50.976;13.720;2022-12-11T05:18:53;97493.97;;;0.05;61.22
34983;BME280;21187;50.976;13.720;2022-12-11T05:23:54;97494.28;;;0.03;60.91
34983;BME280;21187;50.976;13.720;2022-12-11T05:28:56;97489.34;;;0.10;60.97
34983;BME280;21187;50.976;13.720;2022-12-11T05:33:58;97487.56;;;0.20;60.60
34983;BME280;21187;50.976;13.720;2022-12-11T05:39:02;97479.50;;;0.11;60.56
34983;BME280;21187;50.976;13.720;2022-12-11T05:44:04;97484.13;;;0.05;60.48
34983;BME280;21187;50.976;13.720;2022-12-11T05:49:06;97478.69;;;0.10;60.49
34983;BME280;21187;50.976;13.720;2022-12-11T05:54:09;97486.78;;;0.05;60.82
34983;BME280;21187;50.976;13.720;2022-12-11T05:59:10;97483.63;;;0.03;60.51
34983;BME280;21187;50.976;13.720;2022-12-11T06:04:12;97492.50;;;-0.02;60.67
34983;BME280;21187;50.976;13.720;2022-12-11T06:09:15;97483.84;;;-0.07;60.52
34983;BME280;21187;50.976;13.720;2022-12-11T06:14:17;97488.78;;;-0.14;60.48
34983;BME280;21187;50.976;13.720;2022-12-11T06:19:19;97488.97;;;-0.25;60.44
34983;BME280;21187;50.976;13.720;2022-12-11T06:24:21;97495.66;;;-0.41;60.76
34983;BME280;21187;50.976;13.720;2022-12-11T06:29:23;97485.19;;;-0.52;61.18
34983;BME280;21187;50.976;13.720;2022-12-11T06:34:25;97492.19;;;-0.56;61.35
34983;BME280;21187;50.976;13.720;2022-12-11T06:39:26;97497.09;;;-0.63;61.64
34983;BME280;21187;50.976;13.720;2022-12-11T06:44:28;97499.56;;;-0.67;61.62
34983;BME280;21187;50.976;13.720;2022-12-11T06:49:30;97500.31;;;-0.80;61.87
34983;BME280;21187;50.976;13.720;2022-12-11T06:54:32;97503.81;;;-0.85;61.83
34983;BME280;21187;50.976;13.720;2022-12-11T06:59:34;97502.06;;;-0.89;62.02
34983;BME280;21187;50.976;13.720;2022-12-11T07:04:36;97513.47;;;-0.89;61.54
34983;BME280;21187;50.976;13.720;2022-12-11T07:09:39;97517.63;;;-0.82;61.28
34983;BME280;21187;50.976;13.720;2022-12-11T07:14:41;97522.94;;;-0.82;61.30
34983;BME280;21187;50.976;13.720;2022-12-11T07:19:43;97518.41;;;-0.82;61.61
34983;BME280;21187;50.976;13.720;2022-12-11T07:24:45;97525.00;;;-0.79;61.63
34983;BME280;21187;50.976;13.720;2022-12-11T07:29:47;97526.31;;;-0.77;61.41
34983;BME280;21187;50.976;13.720;2022-12-11T07:34:49;97529.09;;;-0.68;61.37
34983;BME280;21187;50.976;13.720;2022-12-11T07:39:52;97529.88;;;-0.68;61.38
34983;BME280;21187;50.976;13.720;2022-12-11T07:44:54;97527.50;;;-0.69;61.64
34983;BME280;21187;50.976;13.720;2022-12-11T07:49:56;97531.47;;;-0.67;61.29
34983;BME280;21187;50.976;13.720;2022-12-11T07:54:58;97535.78;;;-0.71;61.06
34983;BME280;21187;50.976;13.720;2022-12-11T08:00:00;97533.19;;;-0.90;61.23
34983;BME280;21187;50.976;13.720;2022-12-11T08:05:02;97543.38;;;-0.97;61.63
34983;BME280;21187;50.976;13.720;2022-12-11T08:10:04;97536.13;;;-1.10;61.43
34983;BME280;21187;50.976;13.720;2022-12-11T08:15:06;97530.53;;;-1.09;61.63
34983;BME280;21187;50.976;13.720;2022-12-11T08:20:09;97529.50;;;-0.94;61.06
34983;BME280;21187;50.976;13.720;2022-12-11T08:25:11;97532.00;;;-0.84;61.20
34983;BME280;21187;50.976;13.720;2022-12-11T08:30:14;97538.91;;;-0.82;60.91
34983;BME280;21187;50.976;13.720;2022-12-11T08:35:16;97529.25;;;-0.78;60.81
34983;BME280;21187;50.976;13.720;2022-12-11T08:40:18;97522.78;;;-0.72;61.17
34983;BME280;21187;50.976;13.720;2022-12-11T08:45:20;97524.00;;;-0.64;60.72
34983;BME280;21187;50.976;13.720;2022-12-11T08:50:22;97518.84;;;-0.61;60.64
34983;BME280;21187;50.976;13.720;2022-12-11T08:55:24;97520.59;;;-0.70;60.93
34983;BME280;21187;50.976;13.720;2022-12-11T09:00:26;97521.41;;;-0.70;60.68
34983;BME280;21187;50.976;13.720;2022-12-11T09:05:28;97521.13;;;-0.68;60.40
34983;BME280;21187;50.976;13.720;2022-12-11T09:10:30;97527.50;;;-0.69;60.55
34983;BME280;21187;50.976;13.720;2022-12-11T09:15:32;97530.09;;;-0.64;60.48
34983;BME280;21187;50.976;13.720;2022-12-11T09:20:34;97529.59;;;-0.66;60.67
34983;BME280;21187;50.976;13.720;2022-12-11T09:25:39;97533.91;;;-0.70;60.54
34983;BME280;21187;50.976;13.720;2022-12-11T09:30:40;97530.25;;;-0.74;60.02
34983;BME280;21187;50.976;13.720;2022-12-11T09:35:42;97521.78;;;-0.76;60.58
34983;BME280;21187;50.976;13.720;2022-12-11T09:40:44;97525.94;;;-0.70;60.37
34983;BME280;21187;50.976;13.720;2022-12-11T09:45:47;97524.28;;;-0.66;60.76
34983;BME280;21187;50.976;13.720;2022-12-11T09:50:53;97521.03;;;-0.63;60.60
34983;BME280;21187;50.976;13.720;2022-12-11T10:01:21;97519.66;;;-0.60;60.57
34983;BME280;21187;50.976;13.720;2022-12-11T10:17:31;97496.84;;;-0.47;60.38
34983;BME280;21187;50.976;13.720;2022-12-11T10:22:34;97493.47;;;-0.53;60.65
34983;BME280;21187;50.976;13.720;2022-12-11T10:27:38;97492.19;;;-0.56;60.81
34983;BME280;21187;50.976;13.720;2022-12-11T10:38:03;97492.84;;;-0.64;60.53
34983;BME280;21187;50.976;13.720;2022-12-11T10:43:10;97492.09;;;-0.64;60.17
34983;BME280;21187;50.976;13.720;2022-12-11T10:48:13;97486.56;;;-0.54;60.30
34983;BME280;21187;50.976;13.720;2022-12-11T10:53:20;97476.13;;;-0.51;60.01
34983;BME280;21187;50.976;13.720;2022-12-11T10:58:26;97469.44;;;-0.48;60.37
34983;BME280;21187;50.976;13.720;2022-12-11T11:03:31;97467.84;;;-0.49;60.10
34983;BME280;21187;50.976;13.720;2022-12-11T11:08:46;97456.63;;;-0.60;59.87
34983;BME280;21187;50.976;13.720;2022-12-11T11:13:48;97449.31;;;-0.68;60.64
34983;BME280;21187;50.976;13.720;2022-12-11T11:18:54;97450.13;;;-0.54;60.26
34983;BME280;21187;50.976;13.720;2022-12-11T11:23:56;97457.59;;;-0.56;60.29
34983;BME280;21187;50.976;13.720;2022-12-11T11:28:58;97448.34;;;-0.44;60.22
34983;BME280;21187;50.976;13.720;2022-12-11T11:34:04;97448.34;;;-0.44;60.00
34983;BME280;21187;50.976;13.720;2022-12-11T11:44:37;97428.75;;;-0.21;59.37
34983;BME280;21187;50.976;13.720;2022-12-11T11:49:45;97419.97;;;-0.07;59.58
34983;BME280;21187;50.976;13.720;2022-12-11T12:00:18;97414.63;;;-0.07;59.25
34983;BME280;21187;50.976;13.720;2022-12-11T12:05:26;97412.50;;;-0.33;59.13
34983;BME280;21187;50.976;13.720;2022-12-11T12:10:41;97414.06;;;-0.32;59.16
34983;BME280;21187;50.976;13.720;2022-12-11T12:15:54;97413.69;;;-0.39;58.96
34983;BME280;21187;50.976;13.720;2022-12-11T12:21:11;97415.75;;;-0.50;59.31
34983;BME280;21187;50.976;13.720;2022-12-11T12:31:50;97414.47;;;-0.67;58.75
34983;BME280;21187;50.976;13.720;2022-12-11T12:47:45;97400.66;;;0.24;57.70
34983;BME280;21187;50.976;13.720;2022-12-11T12:52:54;97407.44;;;0.30;57.50
34983;BME280;21187;50.976;13.720;2022-12-11T12:58:02;97397.34;;;0.86;56.80
34983;BME280;21187;50.976;13.720;2022-12-11T13:03:18;97396.09;;;0.61;55.85
34983;BME280;21187;50.976;13.720;2022-12-11T13:08:26;97383.22;;;0.18;56.64
34983;BME280;21187;50.976;13.720;2022-12-11T13:13:37;97384.38;;;-0.11;56.65
34983;BME280;21187;50.976;13.720;2022-12-11T13:18:40;97381.66;;;-0.34;57.26
34983;BME280;21187;50.976;13.720;2022-12-11T13:23:42;97377.63;;;-0.45;57.43
34983;BME280;21187;50.976;13.720;2022-12-11T13:28:46;97379.81;;;-0.47;57.24
34983;BME280;21187;50.976;13.720;2022-12-11T13:33:54;97379.00;;;-0.48;57.39
34983;BME280;21187;50.976;13.720;2022-12-11T13:39:04;97385.69;;;-0.78;57.26
34983;BME280;21187;50.976;13.720;2022-12-11T13:44:15;97394.47;;;-0.78;57.06
34983;BME280;21187;50.976;13.720;2022-12-11T13:49:32;97395.84;;;-0.80;56.67
34983;BME280;21187;50.976;13.720;2022-12-11T13:54:35;97399.47;;;-1.04;57.51
34983;BME280;21187;50.976;13.720;2022-12-11T13:59:41;97396.47;;;-1.17;57.16
34983;BME280;21187;50.976;13.720;2022-12-11T14:04:43;97397.00;;;-1.34;57.55
34983;BME280;21187;50.976;13.720;2022-12-11T14:09:46;97403.53;;;-1.26;57.78
34983;BME280;21187;50.976;13.720;2022-12-11T14:14:54;97397.44;;;-1.12;57.82
34983;BME280;21187;50.976;13.720;2022-12-11T14:20:00;97390.19;;;-0.93;57.45
34983;BME280;21187;50.976;13.720;2022-12-11T14:25:19;97389.25;;;-0.83;57.36
34983;BME280;21187;50.976;13.720;2022-12-11T14:30:27;97393.19;;;-0.80;57.35
34983;BME280;21187;50.976;13.720;2022-12-11T14:35:32;97398.25;;;-0.98;57.61
34983;BME280;21187;50.976;13.720;2022-12-11T14:40:41;97402.59;;;-1.02;57.86
34983;BME280;21187;50.976;13.720;2022-12-11T14:45:47;97404.34;;;-1.11;57.83
34983;BME280;21187;50.976;13.720;2022-12-11T14:50:52;97416.72;;;-1.21;57.99
34983;BME280;21187;50.976;13.720;2022-12-11T14:55:57;97405.78;;;-1.19;58.24
34983;BME280;21187;50.976;13.720;2022-12-11T15:01:04;97407.63;;;-1.34;58.31
34983;BME280;21187;50.976;13.720;2022-12-11T15:06:27;97412.47;;;-1.55;58.99
34983;BME280;21187;50.976;13.720;2022-12-11T15:11:30;97420.41;;;-1.36;58.69
34983;BME280;21187;50.976;13.720;2022-12-11T15:16:37;97422.78;;;-1.34;58.63
34983;BME280;21187;50.976;13.720;2022-12-11T15:21:41;97421.78;;;-1.38;59.23
34983;BME280;21187;50.976;13.720;2022-12-11T15:26:45;97421.28;;;-1.40;59.64
34983;BME280;21187;50.976;13.720;2022-12-11T15:37:24;97413.16;;;-1.30;59.76
34983;BME280;21187;50.976;13.720;2022-12-11T15:42:36;97417.78;;;-1.22;59.46
34983;BME280;21187;50.976;13.720;2022-12-11T15:47:41;97414.34;;;-1.22;59.65
34983;BME280;21187;50.976;13.720;2022-12-11T15:52:44;97412.00;;;-1.24;59.77
34983;BME280;21187;50.976;13.720;2022-12-11T15:57:58;97404.94;;;-1.14;59.13
34983;BME280;21187;50.976;13.720;2022-12-11T16:03:01;97419.81;;;-1.13;59.72
34983;BME280;21187;50.976;13.720;2022-12-11T16:08:03;97429.53;;;-1.23;59.87
34983;BME280;21187;50.976;13.720;2022-12-11T16:13:05;97430.00;;;-1.21;59.50
34983;BME280;21187;50.976;13.720;2022-12-11T16:18:10;97433.66;;;-1.17;59.35
34983;BME280;21187;50.976;13.720;2022-12-11T16:23:13;97422.63;;;-1.24;59.72
34983;BME280;21187;50.976;13.720;2022-12-11T16:28:18;97420.28;;;-1.11;59.67
34983;BME280;21187;50.976;13.720;2022-12-11T16:33:21;97431.44;;;-1.09;59.71
34983;BME280;21187;50.976;13.720;2022-12-11T16:38:23;97430.50;;;-1.19;59.50
34983;BME280;21187;50.976;13.720;2022-12-11T16:43:25;97420.88;;;-1.14;59.84
34983;BME280;21187;50.976;13.720;2022-12-11T16:48:27;97420.88;;;-1.14;59.38
34983;BME280;21187;50.976;13.720;2022-12-11T16:53:29;97425.53;;;-1.06;59.56
34983;BME280;21187;50.976;13.720;2022-12-11T16:58:31;97424.22;;;-1.23;59.60
34983;BME280;21187;50.976;13.720;2022-12-11T17:03:33;97422.34;;;-1.41;60.10
34983;BME280;21187;50.976;13.720;2022-12-11T17:08:36;97424.66;;;-1.54;60.24
34983;BME280;21187;50.976;13.720;2022-12-11T17:13:38;97420.50;;;-1.60;60.17
34983;BME280;21187;50.976;13.720;2022-12-11T17:18:40;97422.09;;;-1.59;60.53
34983;BME280;21187;50.976;13.720;2022-12-11T17:23:43;97432.00;;;-1.64;60.58
34983;BME280;21187;50.976;13.720;2022-12-11T17:28:45;97429.72;;;-1.71;60.77
34983;BME280;21187;50.976;13.720;2022-12-11T17:33:48;97433.38;;;-1.67;60.24
34983;BME280;21187;50.976;13.720;2022-12-11T17:38:50;97435.28;;;-1.54;60.20
34983;BME280;21187;50.976;13.720;2022-12-11T17:43:54;97421.59;;;-1.61;60.77
34983;BME280;21187;50.976;13.720;2022-12-11T17:48:56;97427.91;;;-1.57;60.71
34983;BME280;21187;50.976;13.720;2022-12-11T17:54:00;97428.56;;;-1.65;60.66
34983;BME280;21187;50.976;13.720;2022-12-11T17:59:03;97427.53;;;-1.69;61.00
34983;BME280;21187;50.976;13.720;2022-12-11T18:04:05;97432.06;;;-1.70;60.86
34983;BME280;21187;50.976;13.720;2022-12-11T18:09:08;97426.97;;;-1.66;60.76
34983;BME280;21187;50.976;13.720;2022-12-11T18:14:12;97435.44;;;-1.64;60.46
34983;BME280;21187;50.976;13.720;2022-12-11T18:19:18;97429.56;;;-1.61;61.00
34983;BME280;21187;50.976;13.720;2022-12-11T18:24:21;97433.94;;;-1.51;61.04
34983;BME280;21187;50.976;13.720;2022-12-11T18:29:24;97433.94;;;-1.51;60.40
34983;BME280;21187;50.976;13.720;2022-12-11T18:34:26;97439.03;;;-1.55;60.77
34983;BME280;21187;50.976;13.720;2022-12-11T18:39:28;97445.69;;;-1.57;61.15
34983;BME280;21187;50.976;13.720;2022-12-11T18:44:30;97434.16;;;-1.47;60.71
34983;BME280;21187;50.976;13.720;2022-12-11T18:49:32;97437.22;;;-1.40;60.87
34983;BME280;21187;50.976;13.720;2022-12-11T18:54:34;97432.81;;;-1.31;60.34
34983;BME280;21187;50.976;13.720;2022-12-11T18:59:36;97426.66;;;-1.26;60.25
34983;BME280;21187;50.976;13.720;2022-12-11T19:04:38;97428.69;;;-1.37;60.71
34983;BME280;21187;50.976;13.720;2022-12-11T19:09:40;97425.81;;;-1.41;60.29
34983;BME280;21187;50.976;13.720;2022-12-11T19:14:48;97422.72;;;-1.48;60.90
34983;BME280;21187;50.976;13.720;2022-12-11T19:19:50;97422.53;;;-1.52;60.57
34983;BME280;21187;50.976;13.720;2022-12-11T19:24:51;97427.41;;;-1.59;60.88
34983;BME280;21187;50.976;13.720;2022-12-11T19:29:53;97416.91;;;-1.69;61.19
34983;BME280;21187;50.976;13.720;2022-12-11T19:34:55;97428.13;;;-1.72;61.31
34983;BME280;21187;50.976;13.720;2022-12-11T19:39:57;97412.78;;;-1.75;61.52
34983;BME280;21187;50.976;13.720;2022-12-11T19:44:59;97415.00;;;-1.82;61.22
34983;BME280;21187;50.976;13.720;2022-12-11T19:50:00;97424.91;;;-1.88;61.46
34983;BME280;21187;50.976;13.720;2022-12-11T19:55:04;97416.28;;;-1.80;61.77
34983;BME280;21187;50.976;13.720;2022-12-11T20:00:07;97415.72;;;-1.77;61.38
34983;BME280;21187;50.976;13.720;2022-12-11T20:05:12;97412.19;;;-1.72;61.16
34983;BME280;21187;50.976;13.720;2022-12-11T20:10:15;97418.50;;;-1.68;61.47
34983;BME280;21187;50.976;13.720;2022-12-11T20:15:17;97415.19;;;-1.60;61.19
34983;BME280;21187;50.976;13.720;2022-12-11T20:20:22;97413.63;;;-1.61;60.83
34983;BME280;21187;50.976;13.720;2022-12-11T20:25:26;97410.63;;;-1.54;61.08
34983;BME280;21187;50.976;13.720;2022-12-11T20:30:28;97417.78;;;-1.55;60.78
34983;BME280;21187;50.976;13.720;2022-12-11T20:35:30;97412.47;;;-1.55;60.87
34983;BME280;21187;50.976;13.720;2022-12-11T20:40:32;97415.03;;;-1.49;60.94
34983;BME280;21187;50.976;13.720;2022-12-11T20:45:34;97419.00;;;-1.47;60.62
34983;BME280;21187;50.976;13.720;2022-12-11T20:50:37;97418.78;;;-1.51;60.73
34983;BME280;21187;50.976;13.720;2022-12-11T20:55:40;97421.44;;;-1.51;61.14
34983;BME280;21187;50.976;13.720;2022-12-11T21:00:43;97419.22;;;-1.43;60.62
34983;BME280;21187;50.976;13.720;2022-12-11T21:05:45;97413.38;;;-1.45;61.09
34983;BME280;21187;50.976;13.720;2022-12-11T21:10:48;97410.09;;;-1.56;61.53
34983;BME280;21187;50.976;13.720;2022-12-11T21:15:50;97405.38;;;-1.59;61.30
34983;BME280;21187;50.976;13.720;2022-12-11T21:20:55;97409.09;;;-1.60;61.29
34983;BME280;21187;50.976;13.720;2022-12-11T21:25:58;97410.63;;;-1.73;61.53
34983;BME280;21187;50.976;13.720;2022-12-11T21:31:01;97410.13;;;-1.75;61.65
34983;BME280;21187;50.976;13.720;2022-12-11T21:36:05;97399.22;;;-1.74;61.46
34983;BME280;21187;50.976;13.720;2022-12-11T21:41:22;97403.66;;;-1.69;61.27
34983;BME280;21187;50.976;13.720;2022-12-11T21:46:27;97398.25;;;-1.64;61.42
34983;BME280;21187;50.976;13.720;2022-12-11T21:51:33;97385.88;;;-1.69;61.17
34983;BME280;21187;50.976;13.720;2022-12-11T21:56:41;97387.72;;;-1.69;61.17
34983;BME280;21187;50.976;13.720;2022-12-11T22:01:43;97392.53;;;-1.71;61.54
34983;BME280;21187;50.976;13.720;2022-12-11T22:06:46;97389.53;;;-1.84;61.86
34983;BME280;21187;50.976;13.720;2022-12-11T22:11:48;97389.69;;;-1.94;62.10
34983;BME280;21187;50.976;13.720;2022-12-11T22:16:58;97389.63;;;-1.89;62.29
34983;BME280;21187;50.976;13.720;2022-12-11T22:22:00;97392.81;;;-1.92;62.25
34983;BME280;21187;50.976;13.720;2022-12-11T22:27:02;97388.09;;;-1.95;62.23
34983;BME280;21187;50.976;13.720;2022-12-11T22:32:04;97386.38;;;-1.86;61.97
34983;BME280;21187;50.976;13.720;2022-12-11T22:37:06;97385.78;;;-1.82;62.07
34983;BME280;21187;50.976;13.720;2022-12-11T22:42:08;97389.16;;;-1.96;62.75
34983;BME280;21187;50.976;13.720;2022-12-11T22:47:10;97387.66;;;-2.02;62.67
34983;BME280;21187;50.976;13.720;2022-12-11T22:52:12;97385.28;;;-2.04;62.89
34983;BME280;21187;50.976;13.720;2022-12-11T22:57:14;97385.88;;;-2.07;62.91
34983;BME280;21187;50.976;13.720;2022-12-11T23:02:15;97386.66;;;-2.06;62.86
34983;BME280;21187;50.976;13.720;2022-12-11T23:07:17;97391.53;;;-2.13;63.04
34983;BME280;21187;50.976;13.720;2022-12-11T23:12:19;97391.53;;;-2.13;63.14
34983;BME280;21187;50.976;13.720;2022-12-11T23:17:21;97392.47;;;-2.04;63.00
34983;BME280;21187;50.976;13.720;2022-12-11T23:22:23;97389.81;;;-2.04;62.92
34983;BME280;21187;50.976;13.720;2022-12-11T23:27:25;97390.81;;;-2.00;62.93
34983;BME280;21187;50.976;13.720;2022-12-11T23:32:27;97392.97;;;-2.02;62.88
34983;BME280;21187;50.976;13.720;2022-12-11T23:37:29;97399.06;;;-2.02;63.11
34983;BME280;21187;50.976;13.720;2022-12-11T23:42:32;97395.00;;;-1.94;63.01
34983;BME280;21187;50.976;13.720;2022-12-11T23:47:34;97403.66;;;-1.88;63.14
34983;BME280;21187;50.976;13.720;2022-12-11T23:52:36;97398.59;;;-1.85;62.98
34983;BME280;21187;50.976;13.720;2022-12-11T23:57:37;97402.31;;;-1.86;62.96
